Terminal Aerodrome Forecast
Issued by NWS St Louis, MO

Home | Current Version | Previous Version | Text Only | Print | Product List | Glossary On
Versions: 1 2 3 4 5 6 7 8 9 10 11 12 13 14 15 16 17 18 19 20 21 22 23 24 25 26 27 28 29
000
FTUS43 KLSX 020500
TAFSTL
TAF
KSTL 020520Z 0206/0312 VRB04KT P6SM BKN035
      TEMPO 0207/0209 SCT035
     FM020900 VRB04KT P6SM SCT035
     FM021500 09007KT P6SM SCT040
     FM030100 VRB04KT P6SM SKC=

USA.gov is the U.S. government's official web portal to all federal, state and local government web resources and services.